Terminal Aerodrome Forecast
Issued by NWS

Home | Current Version | Previous Version | Text Only | Print | Product List | Glossary On
Versions: 1 2 3 4 5 6 7 8 9 10 11 12 13 14 15 16 17 18 19 20 21 22 23 24 25 26 27 28 29 30 31 32 33 34 35
000
FTPA31 PHFO 171700
TAFLIH
TAF
PHLI 171734Z 1718/1818 30006KT P6SM FEW030 SCT050
     FM171900 04011KT P6SM SCT030 BKN050
     FM181000 29006KT P6SM SCT025 BKN045=

USA.gov is the U.S. government's official web portal to all federal, state and local government web resources and services.